createdAt,value
2019-05-02T00:03:45.591Z,13.80
2019-05-02T00:08:51.100Z,14.10
2019-05-02T00:13:57.043Z,14.00
2019-05-02T00:19:14.062Z,13.70
2019-05-02T00:24:26.137Z,13.80
2019-05-02T00:29:42.279Z,13.80
2019-05-02T00:34:59.837Z,13.90
2019-05-02T00:40:05.985Z,14.00
2019-05-02T00:45:14.112Z,13.90
2019-05-02T00:50:19.212Z,13.90
2019-05-02T00:55:28.960Z,14.10
2019-05-02T01:00:34.215Z,14.10
2019-05-02T01:05:40.316Z,14.00
2019-05-02T01:10:45.890Z,13.80
2019-05-02T01:15:51.272Z,13.90
2019-05-02T01:20:58.183Z,14.10
2019-05-02T01:26:04.523Z,14.20
2019-05-02T01:31:20.084Z,14.20
2019-05-02T01:36:36.687Z,14.00
2019-05-02T01:41:40.052Z,14.10
2019-05-02T01:46:45.586Z,13.90
2019-05-02T01:51:50.978Z,13.90
2019-05-02T01:56:56.398Z,14.10
2019-05-02T02:02:01.922Z,14.20
2019-05-02T02:07:07.712Z,14.10
2019-05-02T02:12:13.130Z,14.00
2019-05-02T02:17:18.535Z,14.10
2019-05-02T02:22:45.546Z,14.10
2019-05-02T02:27:54.974Z,13.90
2019-05-02T02:33:00.857Z,14.00
2019-05-02T02:38:05.654Z,14.00
2019-05-02T02:43:32.288Z,13.90
2019-05-02T02:48:18.396Z,14.00
2019-05-02T02:53:33.070Z,14.10
2019-05-02T02:58:45.185Z,14.00
2019-05-02T03:03:45.505Z,14.00
2019-05-02T03:08:51.036Z,14.10
2019-05-02T03:14:20.675Z,14.30
2019-05-02T03:19:26.208Z,14.60
2019-05-02T03:24:36.434Z,14.90
2019-05-02T03:29:43.922Z,14.90
2019-05-02T03:34:51.747Z,14.80
2019-05-02T03:39:57.442Z,14.60
2019-05-02T03:45:04.773Z,14.70
2019-05-02T03:50:09.520Z,14.70
2019-05-02T03:55:15.501Z,14.70
2019-05-02T04:00:24.317Z,14.50
2019-05-02T04:05:33.867Z,14.60
2019-05-02T04:11:21.899Z,14.60
2019-05-02T04:16:30.744Z,14.60
2019-05-02T04:21:39.249Z,14.80
2019-05-02T04:26:54.299Z,14.80
2019-05-02T04:31:52.374Z,14.90
2019-05-02T04:37:00.964Z,14.90
2019-05-02T04:42:11.636Z,15.00
2019-05-02T04:47:17.710Z,14.80
2019-05-02T04:52:21.000Z,14.70
2019-05-02T04:57:35.530Z,14.80
2019-05-02T05:02:36.688Z,15.00
2019-05-02T05:07:45.813Z,15.00
2019-05-02T05:12:48.006Z,14.80
2019-05-02T05:17:53.499Z,14.80
2019-05-02T05:22:58.918Z,14.80
2019-05-02T05:28:06.058Z,15.00
2019-05-02T05:33:11.494Z,15.00
2019-05-02T05:38:18.225Z,15.10
2019-05-02T05:43:24.295Z,15.10
2019-05-02T05:48:32.113Z,14.80
2019-05-02T05:53:37.525Z,15.00
2019-05-02T05:58:50.410Z,14.80
2019-05-02T06:03:50.151Z,14.80
2019-05-02T06:08:57.790Z,14.90
2019-05-02T06:14:03.840Z,15.10
2019-05-02T06:19:12.963Z,15.50
2019-05-02T06:24:17.121Z,15.60
2019-05-02T06:29:22.703Z,16.10
2019-05-02T06:34:28.111Z,16.50
2019-05-02T06:39:33.724Z,16.60
2019-05-02T06:44:39.114Z,16.60
2019-05-02T06:49:44.585Z,16.70
2019-05-02T06:54:54.025Z,16.80
2019-05-02T06:59:57.667Z,16.80
2019-05-02T07:05:03.199Z,17.00
2019-05-02T07:10:09.095Z,17.00
2019-05-02T07:15:33.698Z,17.20
2019-05-02T07:20:40.559Z,17.20
2019-05-02T07:25:45.187Z,17.50
2019-05-02T07:30:50.905Z,17.60
2019-05-02T07:36:00.182Z,17.80
2019-05-02T07:41:04.533Z,17.70
2019-05-02T07:46:09.921Z,17.50
2019-05-02T07:51:17.303Z,17.70
2019-05-02T07:56:23.068Z,17.80
2019-05-02T08:01:28.634Z,17.80
2019-05-02T08:06:35.252Z,17.70
2019-05-02T08:11:41.523Z,17.70
2019-05-02T08:16:47.050Z,17.80
2019-05-02T08:21:52.502Z,18.00
2019-05-02T08:27:22.863Z,18.20
2019-05-02T08:32:26.893Z,18.10
2019-05-02T08:37:35.403Z,18.00
2019-05-02T08:42:39.604Z,18.10
2019-05-02T08:47:45.002Z,18.30
2019-05-02T08:52:50.463Z,18.50
2019-05-02T08:57:56.103Z,18.40
2019-05-02T09:03:02.541Z,18.60
2019-05-02T09:08:09.136Z,18.70
2019-05-02T09:13:23.682Z,18.70
2019-05-02T09:18:29.990Z,18.60
2019-05-02T09:23:33.124Z,18.50
2019-05-02T09:28:37.174Z,18.10
2019-05-02T09:33:46.758Z,18.00
2019-05-02T09:38:55.985Z,17.80
2019-05-02T09:43:57.541Z,17.90
2019-05-02T09:49:10.698Z,18.20
2019-05-02T09:54:11.982Z,18.20
2019-05-02T09:59:28.645Z,18.30
2019-05-02T10:04:25.617Z,18.40
2019-05-02T10:09:32.405Z,18.40
2019-05-02T10:14:38.094Z,18.20
2019-05-02T10:19:48.936Z,18.40
2019-05-02T10:24:51.971Z,18.80
2019-05-02T10:30:02.279Z,18.80
2019-05-02T10:35:05.684Z,18.70
2019-05-02T10:40:13.477Z,19.10
2019-05-02T10:45:19.095Z,19.20
2019-05-02T10:50:32.906Z,19.70
2019-05-02T10:55:38.523Z,19.90
2019-05-02T11:00:45.546Z,20.20
2019-05-02T11:05:58.074Z,19.80
2019-05-02T11:11:05.967Z,19.80
2019-05-02T11:16:32.137Z,19.40
2019-05-02T11:21:37.655Z,20.00
2019-05-02T11:26:43.065Z,21.20
2019-05-02T11:31:48.595Z,21.30
2019-05-02T11:36:53.967Z,21.10
2019-05-02T11:42:02.149Z,20.90
2019-05-02T11:47:07.731Z,20.80
2019-05-02T11:52:13.131Z,21.50
2019-05-02T11:57:21.324Z,21.10
2019-05-02T12:02:58.222Z,21.30
2019-05-02T12:08:08.034Z,21.30
2019-05-02T12:13:15.771Z,22.80
2019-05-02T12:18:20.647Z,23.80
2019-05-02T12:23:25.391Z,24.00
2019-05-02T12:28:32.392Z,23.80
2019-05-02T12:33:42.613Z,23.50
2019-05-02T12:38:47.883Z,23.00
2019-05-02T12:43:53.463Z,23.60
2019-05-02T12:48:59.006Z,24.00
2019-05-02T12:54:04.683Z,24.20
2019-05-02T12:59:11.848Z,22.70
2019-05-02T13:04:17.329Z,22.40
2019-05-02T13:09:23.542Z,23.10
2019-05-02T13:14:32.066Z,22.20
2019-05-02T13:19:41.151Z,21.20
2019-05-02T13:24:52.342Z,22.00
2019-05-02T13:29:55.068Z,23.80
2019-05-02T13:35:18.098Z,24.20
2019-05-02T13:40:33.901Z,23.10
2019-05-02T13:46:12.557Z,22.00
2019-05-02T13:51:18.009Z,21.80
2019-05-02T13:56:45.206Z,23.20
2019-05-02T14:01:52.738Z,24.60
2019-05-02T14:06:58.232Z,24.20
2019-05-02T14:12:22.488Z,24.00
2019-05-02T14:17:28.074Z,23.00
2019-05-02T14:22:33.494Z,21.70
2019-05-02T14:27:39.315Z,22.90
2019-05-02T14:32:44.816Z,23.70
2019-05-02T14:38:08.020Z,22.00
2019-05-02T14:43:16.741Z,20.90
2019-05-02T14:48:25.119Z,23.80
2019-05-02T14:53:32.029Z,26.20
2019-05-02T14:58:42.707Z,26.60
2019-05-02T15:03:48.142Z,27.00
2019-05-02T15:08:53.540Z,27.40
2019-05-02T15:13:58.987Z,27.00
2019-05-02T15:19:04.689Z,26.90
2019-05-02T15:24:11.963Z,26.70
2019-05-02T15:29:19.835Z,26.30
2019-05-02T15:34:46.248Z,25.20
2019-05-02T15:44:52.112Z,23.70
2019-05-02T15:49:57.107Z,25.10
2019-05-02T15:55:04.112Z,25.40
2019-05-02T16:00:17.150Z,25.40
2019-05-02T16:05:22.171Z,25.20
2019-05-02T16:10:31.586Z,25.10
2019-05-02T16:15:34.257Z,25.30
2019-05-02T16:21:08.074Z,24.70
2019-05-02T16:26:14.005Z,23.90
2019-05-02T16:31:22.127Z,21.80
2019-05-02T16:36:35.707Z,23.20
2019-05-02T16:41:34.897Z,24.00
2019-05-02T16:46:40.492Z,23.80
2019-05-02T16:51:46.042Z,24.20
2019-05-02T16:56:52.118Z,23.80
2019-05-02T17:01:59.566Z,23.40
2019-05-02T17:07:08.503Z,23.70
2019-05-02T17:12:15.262Z,23.50
2019-05-02T17:17:22.196Z,23.30
2019-05-02T17:22:28.827Z,21.40
2019-05-02T17:27:34.286Z,22.00
2019-05-02T17:32:41.412Z,23.10
2019-05-02T17:37:48.796Z,22.30
2019-05-02T17:42:57.043Z,22.40
2019-05-02T17:48:00.955Z,21.20
2019-05-02T17:53:07.159Z,20.30
2019-05-02T17:58:14.154Z,19.60
2019-05-02T18:03:24.282Z,19.60
2019-05-02T18:08:46.284Z,19.20
2019-05-02T18:13:52.843Z,18.80
2019-05-02T18:18:58.271Z,18.50
2019-05-02T18:24:06.136Z,18.60
2019-05-02T18:29:13.201Z,18.50
2019-05-02T18:34:21.184Z,18.20
2019-05-02T18:39:26.579Z,17.90
2019-05-02T18:44:32.617Z,17.80
2019-05-02T18:49:39.117Z,17.50
2019-05-02T18:54:47.353Z,17.60
2019-05-02T18:59:56.465Z,17.50
2019-05-02T19:05:01.960Z,17.20
2019-05-02T19:10:08.259Z,17.30
2019-05-02T19:15:14.649Z,17.30
2019-05-02T19:20:38.980Z,17.20
2019-05-02T19:25:44.882Z,17.20
2019-05-02T19:30:51.997Z,17.30
2019-05-02T19:35:57.645Z,17.20
2019-05-02T19:41:08.826Z,17.00
2019-05-02T19:46:11.980Z,17.00
2019-05-02T19:51:20.133Z,16.90
2019-05-02T19:56:24.482Z,16.50
2019-05-02T20:01:29.992Z,16.40
2019-05-02T20:06:35.470Z,16.30
2019-05-02T20:11:42.564Z,16.30
2019-05-02T20:16:52.852Z,16.20
2019-05-02T20:22:16.367Z,16.20
2019-05-02T20:27:22.624Z,16.10
2019-05-02T20:32:28.836Z,16.10
2019-05-02T20:37:34.374Z,16.20
2019-05-02T20:42:41.835Z,16.30
2019-05-02T20:47:47.280Z,16.20
2019-05-02T20:52:52.974Z,16.10
2019-05-02T20:57:58.356Z,16.00
2019-05-02T21:03:03.845Z,16.10
2019-05-02T21:08:41.910Z,16.20
2019-05-02T21:13:47.574Z,16.10
2019-05-02T21:18:53.139Z,16.20
2019-05-02T21:23:58.729Z,16.30
2019-05-02T21:29:04.324Z,16.20
2019-05-02T21:34:11.599Z,16.00
2019-05-02T21:39:16.870Z,16.00
2019-05-02T21:44:22.503Z,15.90
2019-05-02T21:49:50.119Z,15.70
2019-05-02T21:55:14.392Z,15.70
2019-05-02T22:00:57.395Z,15.70
2019-05-02T22:06:03.021Z,15.60
2019-05-02T22:11:08.728Z,15.60
2019-05-02T22:16:14.111Z,15.40
2019-05-02T22:21:19.544Z,15.40
2019-05-02T22:26:24.947Z,15.40
2019-05-02T22:31:32.187Z,15.40
2019-05-02T22:36:37.514Z,15.40
2019-05-02T22:41:42.963Z,15.30
2019-05-02T22:46:48.460Z,15.40
2019-05-02T22:51:54.010Z,15.40
2019-05-02T22:56:59.487Z,15.30
2019-05-02T23:02:04.884Z,15.20
2019-05-02T23:07:10.278Z,15.20
2019-05-02T23:12:15.773Z,15.20
2019-05-02T23:17:22.997Z,15.30
2019-05-02T23:22:28.399Z,15.40
2019-05-02T23:27:58.627Z,15.50
2019-05-02T23:33:04.174Z,15.60
2019-05-02T23:38:09.568Z,15.60
2019-05-02T23:43:15.001Z,15.60
2019-05-02T23:48:22.088Z,15.50
2019-05-02T23:53:27.523Z,15.50
2019-05-02T23:58:33.147Z,15.50
